sensor_id;sensor_type;location;lat;lon;timestamp;P1;durP1;ratioP1;P2;durP2;ratioP2
8399;SDS011;4237;47.030;15.396;2022-12-07T00:01:44;28.50;;;12.57;;
8399;SDS011;4237;47.030;15.396;2022-12-07T00:04:15;20.03;;;11.77;;
8399;SDS011;4237;47.030;15.396;2022-12-07T00:06:46;20.07;;;11.27;;
8399;SDS011;4237;47.030;15.396;2022-12-07T00:09:16;24.60;;;12.50;;
8399;SDS011;4237;47.030;15.396;2022-12-07T00:11:48;23.90;;;12.43;;
8399;SDS011;4237;47.030;15.396;2022-12-07T00:14:18;37.70;;;13.67;;
8399;SDS011;4237;47.030;15.396;2022-12-07T00:16:51;37.13;;;15.30;;
8399;SDS011;4237;47.030;15.396;2022-12-07T00:19:20;41.37;;;14.07;;
8399;SDS011;4237;47.030;15.396;2022-12-07T00:21:48;26.40;;;14.53;;
8399;SDS011;4237;47.030;15.396;2022-12-07T00:24:17;31.23;;;14.07;;
8399;SDS011;4237;47.030;15.396;2022-12-07T00:26:46;34.87;;;14.10;;
8399;SDS011;4237;47.030;15.396;2022-12-07T00:29:15;44.07;;;14.70;;
8399;SDS011;4237;47.030;15.396;2022-12-07T00:31:46;65.57;;;17.97;;
8399;SDS011;4237;47.030;15.396;2022-12-07T00:34:16;35.57;;;15.37;;
8399;SDS011;4237;47.030;15.396;2022-12-07T00:36:49;41.20;;;15.13;;
8399;SDS011;4237;47.030;15.396;2022-12-07T00:39:18;63.87;;;15.47;;
8399;SDS011;4237;47.030;15.396;2022-12-07T00:41:46;90.27;;;17.27;;
8399;SDS011;4237;47.030;15.396;2022-12-07T00:44:15;100.83;;;17.20;;
8399;SDS011;4237;47.030;15.396;2022-12-07T00:46:44;85.60;;;17.17;;
8399;SDS011;4237;47.030;15.396;2022-12-07T00:49:13;139.40;;;19.17;;
8399;SDS011;4237;47.030;15.396;2022-12-07T00:51:41;109.73;;;17.53;;
8399;SDS011;4237;47.030;15.396;2022-12-07T00:54:10;106.53;;;17.83;;
8399;SDS011;4237;47.030;15.396;2022-12-07T00:56:38;96.77;;;17.20;;
8399;SDS011;4237;47.030;15.396;2022-12-07T00:59:10;62.90;;;15.90;;
8399;SDS011;4237;47.030;15.396;2022-12-07T01:01:40;26.73;;;12.80;;
8399;SDS011;4237;47.030;15.396;2022-12-07T01:04:10;32.87;;;13.40;;
8399;SDS011;4237;47.030;15.396;2022-12-07T01:06:38;23.77;;;12.93;;
8399;SDS011;4237;47.030;15.396;2022-12-07T01:09:07;26.10;;;12.50;;
8399;SDS011;4237;47.030;15.396;2022-12-07T01:11:36;39.97;;;13.93;;
8399;SDS011;4237;47.030;15.396;2022-12-07T01:14:04;44.80;;;14.57;;
8399;SDS011;4237;47.030;15.396;2022-12-07T01:16:33;36.03;;;12.83;;
8399;SDS011;4237;47.030;15.396;2022-12-07T01:19:01;47.07;;;14.73;;
8399;SDS011;4237;47.030;15.396;2022-12-07T01:21:32;86.87;;;17.17;;
8399;SDS011;4237;47.030;15.396;2022-12-07T01:24:04;54.93;;;15.97;;
8399;SDS011;4237;47.030;15.396;2022-12-07T01:26:35;31.90;;;14.23;;
8399;SDS011;4237;47.030;15.396;2022-12-07T01:29:03;32.77;;;15.30;;
8399;SDS011;4237;47.030;15.396;2022-12-07T01:31:32;33.80;;;16.23;;
8399;SDS011;4237;47.030;15.396;2022-12-07T01:34:01;29.77;;;16.07;;
8399;SDS011;4237;47.030;15.396;2022-12-07T01:36:31;35.77;;;15.40;;
8399;SDS011;4237;47.030;15.396;2022-12-07T01:39:06;43.40;;;16.33;;
8399;SDS011;4237;47.030;15.396;2022-12-07T01:41:38;87.63;;;14.73;;
8399;SDS011;4237;47.030;15.396;2022-12-07T01:44:11;29.97;;;13.07;;
8399;SDS011;4237;47.030;15.396;2022-12-07T01:46:51;24.77;;;12.63;;
8399;SDS011;4237;47.030;15.396;2022-12-07T01:52:22;97.23;;;16.40;;
8399;SDS011;4237;47.030;15.396;2022-12-07T01:54:53;55.90;;;11.87;;
8399;SDS011;4237;47.030;15.396;2022-12-07T01:57:26;41.43;;;12.27;;
8399;SDS011;4237;47.030;15.396;2022-12-07T01:59:55;37.27;;;12.00;;
8399;SDS011;4237;47.030;15.396;2022-12-07T02:02:29;34.40;;;12.63;;
8399;SDS011;4237;47.030;15.396;2022-12-07T02:05:00;43.07;;;13.40;;
8399;SDS011;4237;47.030;15.396;2022-12-07T02:07:31;99.73;;;13.97;;
8399;SDS011;4237;47.030;15.396;2022-12-07T02:10:21;134.53;;;15.27;;
8399;SDS011;4237;47.030;15.396;2022-12-07T02:12:59;67.00;;;12.90;;
8399;SDS011;4237;47.030;15.396;2022-12-07T02:15:33;58.30;;;13.10;;
8399;SDS011;4237;47.030;15.396;2022-12-07T02:26:23;70.03;;;13.13;;
8399;SDS011;4237;47.030;15.396;2022-12-07T02:29:17;120.10;;;13.47;;
8399;SDS011;4237;47.030;15.396;2022-12-07T02:31:49;96.90;;;14.07;;
8399;SDS011;4237;47.030;15.396;2022-12-07T02:34:35;40.63;;;12.47;;
8399;SDS011;4237;47.030;15.396;2022-12-07T02:37:19;79.90;;;14.33;;
8399;SDS011;4237;47.030;15.396;2022-12-07T02:39:50;60.53;;;12.70;;
8399;SDS011;4237;47.030;15.396;2022-12-07T02:42:23;45.70;;;10.90;;
8399;SDS011;4237;47.030;15.396;2022-12-07T02:44:52;26.63;;;10.17;;
8399;SDS011;4237;47.030;15.396;2022-12-07T02:47:21;48.53;;;10.97;;
8399;SDS011;4237;47.030;15.396;2022-12-07T02:49:52;46.17;;;10.97;;
8399;SDS011;4237;47.030;15.396;2022-12-07T02:52:21;70.40;;;12.03;;
8399;SDS011;4237;47.030;15.396;2022-12-07T02:54:49;66.33;;;13.00;;
8399;SDS011;4237;47.030;15.396;2022-12-07T02:57:25;92.20;;;14.27;;
8399;SDS011;4237;47.030;15.396;2022-12-07T03:00:09;91.80;;;14.83;;
8399;SDS011;4237;47.030;15.396;2022-12-07T03:02:50;89.27;;;15.70;;
8399;SDS011;4237;47.030;15.396;2022-12-07T03:05:27;71.33;;;13.27;;
8399;SDS011;4237;47.030;15.396;2022-12-07T03:15:55;45.13;;;11.90;;
8399;SDS011;4237;47.030;15.396;2022-12-07T03:18:29;59.90;;;12.30;;
8399;SDS011;4237;47.030;15.396;2022-12-07T03:21:03;95.97;;;15.07;;
8399;SDS011;4237;47.030;15.396;2022-12-07T03:23:34;67.37;;;13.10;;
8399;SDS011;4237;47.030;15.396;2022-12-07T03:26:05;70.10;;;14.13;;
8399;SDS011;4237;47.030;15.396;2022-12-07T03:28:37;93.70;;;14.53;;
8399;SDS011;4237;47.030;15.396;2022-12-07T03:31:11;92.83;;;15.10;;
8399;SDS011;4237;47.030;15.396;2022-12-07T03:33:43;93.60;;;13.43;;
8399;SDS011;4237;47.030;15.396;2022-12-07T03:36:14;105.67;;;14.30;;
8399;SDS011;4237;47.030;15.396;2022-12-07T03:39:02;121.43;;;14.73;;
8399;SDS011;4237;47.030;15.396;2022-12-07T03:41:33;93.07;;;15.03;;
8399;SDS011;4237;47.030;15.396;2022-12-07T03:44:04;57.77;;;12.03;;
8399;SDS011;4237;47.030;15.396;2022-12-07T03:46:41;74.33;;;13.10;;
8399;SDS011;4237;47.030;15.396;2022-12-07T03:52:05;34.23;;;12.07;;
8399;SDS011;4237;47.030;15.396;2022-12-07T03:54:55;50.83;;;11.43;;
8399;SDS011;4237;47.030;15.396;2022-12-07T03:57:28;86.50;;;14.07;;
8399;SDS011;4237;47.030;15.396;2022-12-07T03:59:58;35.83;;;11.30;;
8399;SDS011;4237;47.030;15.396;2022-12-07T04:02:27;42.67;;;11.50;;
8399;SDS011;4237;47.030;15.396;2022-12-07T04:04:57;39.60;;;11.67;;
8399;SDS011;4237;47.030;15.396;2022-12-07T04:07:26;37.27;;;11.33;;
8399;SDS011;4237;47.030;15.396;2022-12-07T04:09:54;53.53;;;11.97;;
8399;SDS011;4237;47.030;15.396;2022-12-07T04:12:23;81.03;;;13.60;;
8399;SDS011;4237;47.030;15.396;2022-12-07T04:14:52;60.30;;;13.13;;
8399;SDS011;4237;47.030;15.396;2022-12-07T04:17:20;54.23;;;12.53;;
8399;SDS011;4237;47.030;15.396;2022-12-07T04:19:49;47.70;;;11.13;;
8399;SDS011;4237;47.030;15.396;2022-12-07T04:22:18;71.50;;;13.23;;
8399;SDS011;4237;47.030;15.396;2022-12-07T04:24:47;50.40;;;11.63;;
8399;SDS011;4237;47.030;15.396;2022-12-07T04:27:15;42.07;;;11.57;;
8399;SDS011;4237;47.030;15.396;2022-12-07T04:29:43;44.90;;;11.37;;
8399;SDS011;4237;47.030;15.396;2022-12-07T04:32:11;19.67;;;9.93;;
8399;SDS011;4237;47.030;15.396;2022-12-07T04:34:40;20.17;;;10.80;;
8399;SDS011;4237;47.030;15.396;2022-12-07T04:37:08;37.90;;;10.27;;
8399;SDS011;4237;47.030;15.396;2022-12-07T04:39:36;38.20;;;10.17;;
8399;SDS011;4237;47.030;15.396;2022-12-07T04:42:04;26.73;;;9.43;;
8399;SDS011;4237;47.030;15.396;2022-12-07T04:44:33;41.13;;;9.20;;
8399;SDS011;4237;47.030;15.396;2022-12-07T04:47:01;45.73;;;10.47;;
8399;SDS011;4237;47.030;15.396;2022-12-07T04:49:29;55.67;;;10.70;;
8399;SDS011;4237;47.030;15.396;2022-12-07T04:51:57;59.10;;;12.77;;
8399;SDS011;4237;47.030;15.396;2022-12-07T04:54:26;62.33;;;12.00;;
8399;SDS011;4237;47.030;15.396;2022-12-07T04:56:54;76.80;;;13.40;;
8399;SDS011;4237;47.030;15.396;2022-12-07T04:59:22;113.70;;;16.30;;
8399;SDS011;4237;47.030;15.396;2022-12-07T05:01:50;128.23;;;15.23;;
8399;SDS011;4237;47.030;15.396;2022-12-07T05:04:18;78.57;;;15.20;;
8399;SDS011;4237;47.030;15.396;2022-12-07T05:06:46;78.23;;;12.23;;
8399;SDS011;4237;47.030;15.396;2022-12-07T05:09:15;110.33;;;13.20;;
8399;SDS011;4237;47.030;15.396;2022-12-07T05:11:43;90.53;;;13.60;;
8399;SDS011;4237;47.030;15.396;2022-12-07T05:14:15;65.47;;;12.13;;
8399;SDS011;4237;47.030;15.396;2022-12-07T05:16:44;113.10;;;14.17;;
8399;SDS011;4237;47.030;15.396;2022-12-07T05:19:12;103.10;;;14.25;;
8399;SDS011;4237;47.030;15.396;2022-12-07T05:21:41;66.77;;;14.03;;
8399;SDS011;4237;47.030;15.396;2022-12-07T05:24:10;101.97;;;14.43;;
8399;SDS011;4237;47.030;15.396;2022-12-07T05:26:39;90.87;;;16.03;;
8399;SDS011;4237;47.030;15.396;2022-12-07T05:29:07;109.03;;;18.43;;
8399;SDS011;4237;47.030;15.396;2022-12-07T05:31:37;140.37;;;33.90;;
8399;SDS011;4237;47.030;15.396;2022-12-07T05:34:05;116.97;;;19.67;;
8399;SDS011;4237;47.030;15.396;2022-12-07T05:36:33;82.60;;;15.00;;
8399;SDS011;4237;47.030;15.396;2022-12-07T05:39:02;83.43;;;14.20;;
8399;SDS011;4237;47.030;15.396;2022-12-07T05:44:34;111.63;;;23.10;;
8399;SDS011;4237;47.030;15.396;2022-12-07T05:47:02;65.57;;;13.30;;
8399;SDS011;4237;47.030;15.396;2022-12-07T05:49:31;99.57;;;14.47;;
8399;SDS011;4237;47.030;15.396;2022-12-07T05:51:59;123.77;;;18.20;;
8399;SDS011;4237;47.030;15.396;2022-12-07T05:54:27;79.47;;;19.93;;
8399;SDS011;4237;47.030;15.396;2022-12-07T05:56:56;95.57;;;18.73;;
8399;SDS011;4237;47.030;15.396;2022-12-07T05:59:24;94.03;;;17.00;;
8399;SDS011;4237;47.030;15.396;2022-12-07T06:02:02;95.73;;;14.20;;
8399;SDS011;4237;47.030;15.396;2022-12-07T06:04:27;111.43;;;17.50;;
8399;SDS011;4237;47.030;15.396;2022-12-07T06:06:56;120.50;;;16.23;;
8399;SDS011;4237;47.030;15.396;2022-12-07T06:09:25;85.27;;;16.40;;
8399;SDS011;4237;47.030;15.396;2022-12-07T06:11:54;152.47;;;17.83;;
8399;SDS011;4237;47.030;15.396;2022-12-07T06:14:41;145.67;;;27.87;;
8399;SDS011;4237;47.030;15.396;2022-12-07T06:17:09;178.67;;;24.67;;
8399;SDS011;4237;47.030;15.396;2022-12-07T06:19:38;110.13;;;14.83;;
8399;SDS011;4237;47.030;15.396;2022-12-07T06:22:06;142.33;;;27.63;;
8399;SDS011;4237;47.030;15.396;2022-12-07T06:24:36;113.57;;;15.57;;
8399;SDS011;4237;47.030;15.396;2022-12-07T06:27:04;78.50;;;15.23;;
8399;SDS011;4237;47.030;15.396;2022-12-07T06:29:33;84.30;;;13.03;;
8399;SDS011;4237;47.030;15.396;2022-12-07T06:32:01;105.10;;;25.00;;
8399;SDS011;4237;47.030;15.396;2022-12-07T06:34:29;156.47;;;27.27;;
8399;SDS011;4237;47.030;15.396;2022-12-07T06:36:57;179.67;;;53.83;;
8399;SDS011;4237;47.030;15.396;2022-12-07T06:39:26;99.77;;;14.53;;
8399;SDS011;4237;47.030;15.396;2022-12-07T06:41:55;58.07;;;14.47;;
8399;SDS011;4237;47.030;15.396;2022-12-07T06:44:23;126.37;;;18.60;;
8399;SDS011;4237;47.030;15.396;2022-12-07T06:46:52;105.80;;;16.40;;
8399;SDS011;4237;47.030;15.396;2022-12-07T06:49:20;101.33;;;15.30;;
8399;SDS011;4237;47.030;15.396;2022-12-07T06:51:48;66.00;;;13.13;;
8399;SDS011;4237;47.030;15.396;2022-12-07T06:54:16;54.90;;;12.63;;
8399;SDS011;4237;47.030;15.396;2022-12-07T06:56:45;35.00;;;12.40;;
8399;SDS011;4237;47.030;15.396;2022-12-07T06:59:13;49.10;;;11.57;;
8399;SDS011;4237;47.030;15.396;2022-12-07T07:01:41;37.27;;;10.57;;
8399;SDS011;4237;47.030;15.396;2022-12-07T07:04:10;50.33;;;12.20;;
8399;SDS011;4237;47.030;15.396;2022-12-07T07:06:38;129.23;;;37.20;;
8399;SDS011;4237;47.030;15.396;2022-12-07T07:09:06;209.60;;;65.77;;
8399;SDS011;4237;47.030;15.396;2022-12-07T07:11:36;295.90;;;92.57;;
8399;SDS011;4237;47.030;15.396;2022-12-07T07:14:04;332.67;;;108.87;;
8399;SDS011;4237;47.030;15.396;2022-12-07T07:16:32;210.63;;;61.20;;
8399;SDS011;4237;47.030;15.396;2022-12-07T07:19:00;95.60;;;17.57;;
8399;SDS011;4237;47.030;15.396;2022-12-07T07:21:29;73.00;;;15.10;;
8399;SDS011;4237;47.030;15.396;2022-12-07T07:23:57;60.27;;;14.63;;
8399;SDS011;4237;47.030;15.396;2022-12-07T07:26:25;82.50;;;16.20;;
8399;SDS011;4237;47.030;15.396;2022-12-07T07:28:53;77.90;;;16.23;;
8399;SDS011;4237;47.030;15.396;2022-12-07T07:31:21;56.40;;;14.80;;
8399;SDS011;4237;47.030;15.396;2022-12-07T07:33:50;54.87;;;17.83;;
8399;SDS011;4237;47.030;15.396;2022-12-07T07:36:18;53.30;;;15.70;;
8399;SDS011;4237;47.030;15.396;2022-12-07T07:38:46;61.17;;;18.20;;
8399;SDS011;4237;47.030;15.396;2022-12-07T07:41:14;69.90;;;14.30;;
8399;SDS011;4237;47.030;15.396;2022-12-07T07:43:42;62.63;;;15.53;;
8399;SDS011;4237;47.030;15.396;2022-12-07T07:46:10;72.63;;;15.37;;
8399;SDS011;4237;47.030;15.396;2022-12-07T07:48:39;63.73;;;15.67;;
8399;SDS011;4237;47.030;15.396;2022-12-07T07:51:07;47.97;;;15.33;;
8399;SDS011;4237;47.030;15.396;2022-12-07T07:53:35;194.97;;;64.90;;
8399;SDS011;4237;47.030;15.396;2022-12-07T07:56:04;141.00;;;45.80;;
8399;SDS011;4237;47.030;15.396;2022-12-07T07:58:32;81.07;;;28.67;;
8399;SDS011;4237;47.030;15.396;2022-12-07T08:01:04;60.23;;;21.80;;
8399;SDS011;4237;47.030;15.396;2022-12-07T08:03:32;52.23;;;16.60;;
8399;SDS011;4237;47.030;15.396;2022-12-07T08:06:04;74.37;;;19.53;;
8399;SDS011;4237;47.030;15.396;2022-12-07T08:08:32;36.77;;;17.40;;
8399;SDS011;4237;47.030;15.396;2022-12-07T08:11:01;64.70;;;16.80;;
8399;SDS011;4237;47.030;15.396;2022-12-07T08:13:30;71.20;;;25.13;;
8399;SDS011;4237;47.030;15.396;2022-12-07T08:15:58;63.77;;;21.63;;
8399;SDS011;4237;47.030;15.396;2022-12-07T08:18:28;52.10;;;20.43;;
8399;SDS011;4237;47.030;15.396;2022-12-07T08:20:59;35.57;;;17.07;;
8399;SDS011;4237;47.030;15.396;2022-12-07T08:23:31;45.10;;;17.37;;
8399;SDS011;4237;47.030;15.396;2022-12-07T08:26:03;44.83;;;15.50;;
8399;SDS011;4237;47.030;15.396;2022-12-07T08:28:32;38.53;;;16.53;;
8399;SDS011;4237;47.030;15.396;2022-12-07T08:31:00;37.67;;;16.33;;
8399;SDS011;4237;47.030;15.396;2022-12-07T08:33:29;58.53;;;16.63;;
8399;SDS011;4237;47.030;15.396;2022-12-07T08:36:04;52.17;;;15.63;;
8399;SDS011;4237;47.030;15.396;2022-12-07T08:38:30;39.97;;;16.20;;
8399;SDS011;4237;47.030;15.396;2022-12-07T08:40:58;59.37;;;29.70;;
8399;SDS011;4237;47.030;15.396;2022-12-07T08:43:27;47.60;;;18.57;;
8399;SDS011;4237;47.030;15.396;2022-12-07T08:48:25;32.63;;;18.50;;
8399;SDS011;4237;47.030;15.396;2022-12-07T08:50:53;22.53;;;14.50;;
8399;SDS011;4237;47.030;15.396;2022-12-07T08:53:22;54.07;;;33.90;;
8399;SDS011;4237;47.030;15.396;2022-12-07T08:55:52;27.90;;;18.20;;
8399;SDS011;4237;47.030;15.396;2022-12-07T08:58:20;26.00;;;14.07;;
8399;SDS011;4237;47.030;15.396;2022-12-07T09:00:48;24.50;;;14.60;;
8399;SDS011;4237;47.030;15.396;2022-12-07T09:03:16;20.13;;;13.30;;
8399;SDS011;4237;47.030;15.396;2022-12-07T09:05:45;23.30;;;13.67;;
8399;SDS011;4237;47.030;15.396;2022-12-07T09:08:13;20.40;;;13.23;;
8399;SDS011;4237;47.030;15.396;2022-12-07T09:10:42;20.93;;;13.83;;
8399;SDS011;4237;47.030;15.396;2022-12-07T09:13:10;24.43;;;14.33;;
8399;SDS011;4237;47.030;15.396;2022-12-07T09:15:38;25.33;;;14.77;;
8399;SDS011;4237;47.030;15.396;2022-12-07T09:18:06;26.77;;;16.63;;
8399;SDS011;4237;47.030;15.396;2022-12-07T09:20:34;27.40;;;15.03;;
8399;SDS011;4237;47.030;15.396;2022-12-07T09:23:05;26.37;;;15.97;;
8399;SDS011;4237;47.030;15.396;2022-12-07T09:25:33;27.40;;;15.57;;
8399;SDS011;4237;47.030;15.396;2022-12-07T09:28:01;23.27;;;14.57;;
8399;SDS011;4237;47.030;15.396;2022-12-07T09:30:30;25.33;;;14.83;;
8399;SDS011;4237;47.030;15.396;2022-12-07T09:32:58;23.83;;;16.63;;
8399;SDS011;4237;47.030;15.396;2022-12-07T09:35:26;24.03;;;14.30;;
8399;SDS011;4237;47.030;15.396;2022-12-07T09:37:54;22.87;;;14.90;;
8399;SDS011;4237;47.030;15.396;2022-12-07T09:40:23;19.40;;;12.93;;
8399;SDS011;4237;47.030;15.396;2022-12-07T09:42:53;23.17;;;14.50;;
8399;SDS011;4237;47.030;15.396;2022-12-07T09:45:35;28.67;;;15.83;;
8399;SDS011;4237;47.030;15.396;2022-12-07T09:48:04;43.17;;;28.13;;
8399;SDS011;4237;47.030;15.396;2022-12-07T09:50:33;24.00;;;15.00;;
8399;SDS011;4237;47.030;15.396;2022-12-07T09:53:06;26.23;;;17.37;;
8399;SDS011;4237;47.030;15.396;2022-12-07T09:55:33;23.70;;;16.10;;
8399;SDS011;4237;47.030;15.396;2022-12-07T09:58:02;25.77;;;16.50;;
8399;SDS011;4237;47.030;15.396;2022-12-07T10:00:31;29.57;;;19.40;;
8399;SDS011;4237;47.030;15.396;2022-12-07T10:03:00;28.00;;;17.43;;
8399;SDS011;4237;47.030;15.396;2022-12-07T10:07:59;27.00;;;16.63;;
8399;SDS011;4237;47.030;15.396;2022-12-07T10:10:32;22.70;;;16.00;;
8399;SDS011;4237;47.030;15.396;2022-12-07T10:12:58;20.50;;;14.67;;
8399;SDS011;4237;47.030;15.396;2022-12-07T10:15:42;25.27;;;17.67;;
8399;SDS011;4237;47.030;15.396;2022-12-07T10:21:05;29.20;;;17.53;;
8399;SDS011;4237;47.030;15.396;2022-12-07T10:23:29;24.70;;;17.60;;
8399;SDS011;4237;47.030;15.396;2022-12-07T10:25:57;25.27;;;17.23;;
8399;SDS011;4237;47.030;15.396;2022-12-07T10:28:33;25.23;;;17.03;;
8399;SDS011;4237;47.030;15.396;2022-12-07T10:33:30;25.80;;;16.53;;
8399;SDS011;4237;47.030;15.396;2022-12-07T10:35:58;26.97;;;16.97;;
8399;SDS011;4237;47.030;15.396;2022-12-07T10:38:28;28.20;;;17.83;;
8399;SDS011;4237;47.030;15.396;2022-12-07T10:41:09;30.30;;;17.10;;
8399;SDS011;4237;47.030;15.396;2022-12-07T10:43:33;26.67;;;16.37;;
8399;SDS011;4237;47.030;15.396;2022-12-07T10:51:26;26.63;;;16.70;;
8399;SDS011;4237;47.030;15.396;2022-12-07T10:53:56;25.97;;;17.20;;
8399;SDS011;4237;47.030;15.396;2022-12-07T10:56:29;25.80;;;16.73;;
8399;SDS011;4237;47.030;15.396;2022-12-07T11:01:30;20.33;;;15.10;;
8399;SDS011;4237;47.030;15.396;2022-12-07T11:03:59;20.40;;;14.77;;
8399;SDS011;4237;47.030;15.396;2022-12-07T11:06:33;20.80;;;14.55;;
8399;SDS011;4237;47.030;15.396;2022-12-07T11:11:36;25.17;;;14.70;;
8399;SDS011;4237;47.030;15.396;2022-12-07T11:19:24;21.37;;;14.47;;
8399;SDS011;4237;47.030;15.396;2022-12-07T11:21:56;17.50;;;14.33;;
8399;SDS011;4237;47.030;15.396;2022-12-07T11:24:27;19.30;;;14.07;;
8399;SDS011;4237;47.030;15.396;2022-12-07T11:32:25;18.83;;;13.83;;
8399;SDS011;4237;47.030;15.396;2022-12-07T11:34:59;16.83;;;13.73;;
8399;SDS011;4237;47.030;15.396;2022-12-07T11:37:23;21.43;;;14.37;;
8399;SDS011;4237;47.030;15.396;2022-12-07T11:39:52;19.67;;;14.20;;
8399;SDS011;4237;47.030;15.396;2022-12-07T11:42:33;19.20;;;14.60;;
8399;SDS011;4237;47.030;15.396;2022-12-07T11:47:35;24.27;;;15.10;;
8399;SDS011;4237;47.030;15.396;2022-12-07T11:52:48;25.53;;;14.00;;
8399;SDS011;4237;47.030;15.396;2022-12-07T11:58:11;21.77;;;14.40;;
8399;SDS011;4237;47.030;15.396;2022-12-07T12:00:34;21.43;;;14.43;;
8399;SDS011;4237;47.030;15.396;2022-12-07T12:03:07;23.97;;;13.93;;
8399;SDS011;4237;47.030;15.396;2022-12-07T12:05:33;26.17;;;15.00;;
8399;SDS011;4237;47.030;15.396;2022-12-07T12:08:03;21.17;;;14.63;;
8399;SDS011;4237;47.030;15.396;2022-12-07T12:10:44;23.23;;;13.87;;
8399;SDS011;4237;47.030;15.396;2022-12-07T12:21:19;19.87;;;14.27;;
8399;SDS011;4237;47.030;15.396;2022-12-07T12:23:54;20.50;;;14.27;;
8399;SDS011;4237;47.030;15.396;2022-12-07T12:26:19;22.43;;;13.97;;
8399;SDS011;4237;47.030;15.396;2022-12-07T12:29:03;20.10;;;13.37;;
8399;SDS011;4237;47.030;15.396;2022-12-07T12:31:34;20.77;;;14.20;;
8399;SDS011;4237;47.030;15.396;2022-12-07T12:34:10;18.60;;;14.03;;
8399;SDS011;4237;47.030;15.396;2022-12-07T12:39:12;19.43;;;14.37;;
8399;SDS011;4237;47.030;15.396;2022-12-07T12:46:50;17.90;;;12.13;;
8399;SDS011;4237;47.030;15.396;2022-12-07T12:54:24;18.87;;;13.60;;
8399;SDS011;4237;47.030;15.396;2022-12-07T12:59:35;21.37;;;13.20;;
8399;SDS011;4237;47.030;15.396;2022-12-07T13:02:15;21.90;;;14.47;;
8399;SDS011;4237;47.030;15.396;2022-12-07T13:05:45;25.00;;;13.83;;
8399;SDS011;4237;47.030;15.396;2022-12-07T13:12:58;21.00;;;13.97;;
8399;SDS011;4237;47.030;15.396;2022-12-07T13:15:34;19.70;;;13.50;;
8399;SDS011;4237;47.030;15.396;2022-12-07T13:18:04;20.33;;;14.20;;
8399;SDS011;4237;47.030;15.396;2022-12-07T13:20:49;21.93;;;14.73;;
8399;SDS011;4237;47.030;15.396;2022-12-07T13:23:36;23.10;;;14.30;;
8399;SDS011;4237;47.030;15.396;2022-12-07T13:31:46;23.63;;;14.90;;
8399;SDS011;4237;47.030;15.396;2022-12-07T13:34:36;24.37;;;14.33;;
8399;SDS011;4237;47.030;15.396;2022-12-07T13:37:10;21.57;;;13.53;;
8399;SDS011;4237;47.030;15.396;2022-12-07T13:39:47;29.13;;;14.93;;
8399;SDS011;4237;47.030;15.396;2022-12-07T13:42:29;21.33;;;15.30;;
8399;SDS011;4237;47.030;15.396;2022-12-07T13:44:58;23.00;;;14.67;;
8399;SDS011;4237;47.030;15.396;2022-12-07T13:47:46;24.43;;;15.10;;
8399;SDS011;4237;47.030;15.396;2022-12-07T13:50:21;22.10;;;15.17;;
8399;SDS011;4237;47.030;15.396;2022-12-07T13:52:45;28.77;;;16.43;;
8399;SDS011;4237;47.030;15.396;2022-12-07T13:55:16;26.33;;;15.53;;
8399;SDS011;4237;47.030;15.396;2022-12-07T13:57:44;28.93;;;15.93;;
8399;SDS011;4237;47.030;15.396;2022-12-07T14:00:21;32.53;;;18.40;;
8399;SDS011;4237;47.030;15.396;2022-12-07T14:03:02;26.17;;;16.00;;
8399;SDS011;4237;47.030;15.396;2022-12-07T14:05:28;23.33;;;16.23;;
8399;SDS011;4237;47.030;15.396;2022-12-07T14:07:57;28.70;;;16.57;;
8399;SDS011;4237;47.030;15.396;2022-12-07T14:10:28;30.13;;;17.10;;
8399;SDS011;4237;47.030;15.396;2022-12-07T14:12:56;30.13;;;17.33;;
8399;SDS011;4237;47.030;15.396;2022-12-07T14:15:27;31.73;;;18.07;;
8399;SDS011;4237;47.030;15.396;2022-12-07T14:17:55;23.87;;;17.30;;
8399;SDS011;4237;47.030;15.396;2022-12-07T14:20:36;27.03;;;18.70;;
8399;SDS011;4237;47.030;15.396;2022-12-07T14:23:05;35.47;;;21.47;;
8399;SDS011;4237;47.030;15.396;2022-12-07T14:25:51;33.13;;;22.37;;
8399;SDS011;4237;47.030;15.396;2022-12-07T14:28:25;35.63;;;20.93;;
8399;SDS011;4237;47.030;15.396;2022-12-07T14:30:54;28.17;;;19.20;;
8399;SDS011;4237;47.030;15.396;2022-12-07T14:33:24;25.80;;;18.27;;
8399;SDS011;4237;47.030;15.396;2022-12-07T14:35:52;28.57;;;18.47;;
8399;SDS011;4237;47.030;15.396;2022-12-07T14:38:25;31.90;;;18.80;;
8399;SDS011;4237;47.030;15.396;2022-12-07T14:40:53;27.90;;;17.87;;
8399;SDS011;4237;47.030;15.396;2022-12-07T14:43:24;31.07;;;19.67;;
8399;SDS011;4237;47.030;15.396;2022-12-07T14:45:52;27.77;;;17.60;;
8399;SDS011;4237;47.030;15.396;2022-12-07T14:48:20;26.23;;;17.27;;
8399;SDS011;4237;47.030;15.396;2022-12-07T14:50:49;31.10;;;16.60;;
8399;SDS011;4237;47.030;15.396;2022-12-07T14:53:19;29.37;;;16.03;;
8399;SDS011;4237;47.030;15.396;2022-12-07T14:55:48;30.10;;;17.27;;
8399;SDS011;4237;47.030;15.396;2022-12-07T14:58:17;27.80;;;17.63;;
8399;SDS011;4237;47.030;15.396;2022-12-07T15:00:45;29.67;;;18.57;;
8399;SDS011;4237;47.030;15.396;2022-12-07T15:03:14;33.03;;;21.00;;
8399;SDS011;4237;47.030;15.396;2022-12-07T15:05:43;33.83;;;22.30;;
8399;SDS011;4237;47.030;15.396;2022-12-07T15:08:12;32.63;;;23.43;;
8399;SDS011;4237;47.030;15.396;2022-12-07T15:10:40;40.37;;;23.07;;
8399;SDS011;4237;47.030;15.396;2022-12-07T15:13:09;36.80;;;21.53;;
8399;SDS011;4237;47.030;15.396;2022-12-07T15:15:55;39.00;;;21.47;;
8399;SDS011;4237;47.030;15.396;2022-12-07T15:18:23;33.00;;;21.17;;
8399;SDS011;4237;47.030;15.396;2022-12-07T15:20:52;39.90;;;21.50;;
8399;SDS011;4237;47.030;15.396;2022-12-07T15:23:20;45.53;;;24.13;;
8399;SDS011;4237;47.030;15.396;2022-12-07T15:25:48;45.17;;;27.23;;
8399;SDS011;4237;47.030;15.396;2022-12-07T15:28:17;34.27;;;21.93;;
8399;SDS011;4237;47.030;15.396;2022-12-07T15:30:45;33.13;;;20.87;;
8399;SDS011;4237;47.030;15.396;2022-12-07T15:33:13;35.60;;;21.83;;
8399;SDS011;4237;47.030;15.396;2022-12-07T15:35:42;36.03;;;21.27;;
8399;SDS011;4237;47.030;15.396;2022-12-07T15:38:10;37.53;;;21.83;;
8399;SDS011;4237;47.030;15.396;2022-12-07T15:40:39;36.97;;;23.27;;
8399;SDS011;4237;47.030;15.396;2022-12-07T15:43:10;39.80;;;22.30;;
8399;SDS011;4237;47.030;15.396;2022-12-07T15:45:40;39.10;;;22.57;;
8399;SDS011;4237;47.030;15.396;2022-12-07T15:48:08;42.57;;;23.17;;
8399;SDS011;4237;47.030;15.396;2022-12-07T15:50:36;38.20;;;23.57;;
8399;SDS011;4237;47.030;15.396;2022-12-07T15:53:04;35.50;;;23.40;;
8399;SDS011;4237;47.030;15.396;2022-12-07T15:55:32;42.17;;;24.63;;
8399;SDS011;4237;47.030;15.396;2022-12-07T15:58:01;38.37;;;24.30;;
8399;SDS011;4237;47.030;15.396;2022-12-07T16:00:29;37.00;;;23.57;;
8399;SDS011;4237;47.030;15.396;2022-12-07T16:02:57;37.63;;;22.17;;
8399;SDS011;4237;47.030;15.396;2022-12-07T16:05:26;31.47;;;20.50;;
8399;SDS011;4237;47.030;15.396;2022-12-07T16:07:54;31.33;;;20.50;;
8399;SDS011;4237;47.030;15.396;2022-12-07T16:10:22;27.50;;;18.77;;
8399;SDS011;4237;47.030;15.396;2022-12-07T16:12:50;31.53;;;20.70;;
8399;SDS011;4237;47.030;15.396;2022-12-07T16:15:18;31.57;;;20.53;;
8399;SDS011;4237;47.030;15.396;2022-12-07T16:17:46;30.80;;;20.83;;
8399;SDS011;4237;47.030;15.396;2022-12-07T16:20:15;24.73;;;17.70;;
8399;SDS011;4237;47.030;15.396;2022-12-07T16:22:43;30.77;;;18.07;;
8399;SDS011;4237;47.030;15.396;2022-12-07T16:25:11;24.50;;;16.60;;
8399;SDS011;4237;47.030;15.396;2022-12-07T16:27:40;25.00;;;16.57;;
8399;SDS011;4237;47.030;15.396;2022-12-07T16:30:08;22.77;;;15.47;;
8399;SDS011;4237;47.030;15.396;2022-12-07T16:32:37;20.13;;;14.60;;